createdAt,value
2024-04-24T00:00:36.513Z,62.58
2024-04-24T00:01:36.538Z,60.95
2024-04-24T00:02:36.669Z,61.42
2024-04-24T00:03:36.596Z,62.14
2024-04-24T00:04:36.527Z,61.05
2024-04-24T00:05:36.545Z,64.29
2024-04-24T00:06:36.522Z,64.60
2024-04-24T00:07:36.508Z,63.77
2024-04-24T00:08:36.562Z,65.63
2024-04-24T00:09:36.773Z,62.66
2024-04-24T00:10:37.749Z,62.87
2024-04-24T00:11:36.566Z,63.19
2024-04-24T00:12:36.567Z,63.79
2024-04-24T00:13:36.541Z,63.70
2024-04-24T00:14:36.514Z,64.96
2024-04-24T00:15:36.555Z,64.47
2024-04-24T00:16:36.665Z,65.17
2024-04-24T00:17:36.849Z,64.83
2024-04-24T00:18:36.876Z,64.73
2024-04-24T00:19:36.853Z,63.99
2024-04-24T00:20:36.887Z,64.72
2024-04-24T00:21:37.082Z,65.53
2024-04-24T00:22:37.060Z,65.45
2024-04-24T00:23:37.207Z,64.00
2024-04-24T00:24:37.220Z,64.44
2024-04-24T00:25:37.331Z,67.80
2024-04-24T00:26:37.401Z,67.70
2024-04-24T00:27:37.527Z,66.34
2024-04-24T00:28:37.643Z,66.31
2024-04-24T00:29:37.678Z,65.38
2024-04-24T00:30:37.620Z,66.12
2024-04-24T00:31:38.694Z,66.14
2024-04-24T00:32:37.780Z,66.40
2024-04-24T00:33:37.918Z,66.28
2024-04-24T00:34:37.906Z,65.48
2024-04-24T00:35:37.971Z,66.00
2024-04-24T00:36:38.023Z,65.76
2024-04-24T00:37:40.118Z,68.38
2024-04-24T00:38:38.149Z,68.66
2024-04-24T00:39:38.148Z,67.87
2024-04-24T00:40:38.262Z,67.84
2024-04-24T00:41:38.100Z,66.77
2024-04-24T00:42:38.107Z,69.34
2024-04-24T00:43:38.115Z,69.81
2024-04-24T00:44:38.140Z,67.66
2024-04-24T00:45:38.144Z,66.92
2024-04-24T00:46:38.136Z,65.06
2024-04-24T00:47:38.215Z,67.74
2024-04-24T00:48:38.206Z,67.28
2024-04-24T00:49:38.107Z,66.86
2024-04-24T00:50:38.179Z,67.38
2024-04-24T00:51:38.660Z,67.43
2024-04-24T00:52:38.304Z,68.05
2024-04-24T00:53:38.148Z,66.93
2024-04-24T00:54:38.130Z,69.06
2024-04-24T00:55:38.143Z,66.53
2024-04-24T00:56:38.135Z,68.16
2024-04-24T00:57:38.273Z,68.24
2024-04-24T00:58:38.148Z,67.34
2024-04-24T00:59:38.142Z,68.22
2024-04-24T01:00:40.739Z,70.21
2024-04-24T01:01:38.130Z,70.12
2024-04-24T01:02:38.169Z,68.95
2024-04-24T01:03:38.154Z,67.88
2024-04-24T01:04:38.242Z,69.60
2024-04-24T01:05:38.167Z,69.61
2024-04-24T01:06:38.348Z,69.03
2024-04-24T01:07:38.276Z,68.90
2024-04-24T01:08:38.167Z,69.26
2024-04-24T01:09:38.205Z,68.87
2024-04-24T01:10:38.162Z,70.03
2024-04-24T01:11:38.319Z,68.84
2024-04-24T01:12:38.161Z,70.25
2024-04-24T01:13:38.186Z,72.34
2024-04-24T01:14:38.184Z,72.11
2024-04-24T01:15:38.142Z,69.37
2024-04-24T01:16:38.159Z,68.36
2024-04-24T01:17:38.278Z,69.13
2024-04-24T01:18:38.209Z,73.10
2024-04-24T01:19:38.162Z,70.38
2024-04-24T01:20:38.170Z,71.92
2024-04-24T01:21:48.077Z,70.79
2024-04-24T01:22:38.287Z,71.01
2024-04-24T01:23:38.174Z,71.58
2024-04-24T01:24:38.230Z,72.02
2024-04-24T01:25:38.220Z,73.16
2024-04-24T01:26:38.320Z,73.87
2024-04-24T01:27:38.294Z,76.88
2024-04-24T01:28:38.201Z,74.18
2024-04-24T01:29:38.212Z,73.57
2024-04-24T01:30:38.233Z,74.67
2024-04-24T01:31:38.213Z,72.35
2024-04-24T01:32:38.305Z,72.97
2024-04-24T01:33:38.200Z,72.03
2024-04-24T01:34:38.246Z,72.27
2024-04-24T01:35:38.276Z,70.36
2024-04-24T01:36:38.187Z,72.13
2024-04-24T01:37:38.204Z,72.36
2024-04-24T01:38:38.200Z,72.30
2024-04-24T01:39:38.181Z,74.17
2024-04-24T01:40:38.181Z,73.35
2024-04-24T01:41:38.214Z,72.65
2024-04-24T01:42:38.206Z,71.00
2024-04-24T01:43:38.222Z,74.48
2024-04-24T01:44:38.238Z,71.92
2024-04-24T01:45:38.398Z,72.55
2024-04-24T01:46:38.342Z,70.94
2024-04-24T01:47:38.435Z,72.20
2024-04-24T01:48:38.520Z,74.96
2024-04-24T01:49:38.410Z,69.77
2024-04-24T01:50:38.279Z,73.35
2024-04-24T01:51:38.278Z,72.50
2024-04-24T01:52:38.321Z,73.85
2024-04-24T01:53:38.328Z,75.81
2024-04-24T01:54:38.357Z,72.39
2024-04-24T01:55:38.305Z,73.95
2024-04-24T01:56:38.322Z,71.40
2024-04-24T01:57:38.356Z,75.07
2024-04-24T01:58:38.301Z,72.03
2024-04-24T01:59:38.355Z,73.53
2024-04-24T02:00:38.396Z,73.14
2024-04-24T02:01:38.447Z,72.63
2024-04-24T02:02:38.429Z,71.91
2024-04-24T02:03:38.497Z,73.05
2024-04-24T02:04:38.417Z,71.21
2024-04-24T02:05:38.370Z,72.60
2024-04-24T02:06:38.402Z,73.45
2024-04-24T02:07:38.405Z,72.22
2024-04-24T02:08:38.400Z,72.53
2024-04-24T02:09:38.411Z,73.94
2024-04-24T02:10:38.455Z,75.87
2024-04-24T02:11:38.533Z,73.10
2024-04-24T02:12:38.499Z,71.72
2024-04-24T02:13:38.501Z,74.65
2024-04-24T02:14:38.660Z,73.81
2024-04-24T02:15:38.603Z,73.48
2024-04-24T02:16:38.746Z,73.93
2024-04-24T02:17:38.620Z,72.32
2024-04-24T02:18:38.726Z,75.48
2024-04-24T02:19:38.596Z,71.78
2024-04-24T02:20:38.602Z,75.24
2024-04-24T02:21:38.643Z,74.44
2024-04-24T02:22:38.654Z,72.71
2024-04-24T02:23:38.641Z,73.13
2024-04-24T02:24:38.707Z,75.74
2024-04-24T02:25:38.704Z,75.64
2024-04-24T02:26:38.703Z,76.25
2024-04-24T02:27:38.749Z,75.86
2024-04-24T02:28:38.757Z,73.22
2024-04-24T02:29:48.143Z,75.96
2024-04-24T02:30:39.759Z,76.13
2024-04-24T02:31:38.973Z,76.09
2024-04-24T02:32:38.939Z,76.48
2024-04-24T02:33:38.824Z,77.60
2024-04-24T02:34:41.868Z,75.55
2024-04-24T02:35:38.786Z,74.52
2024-04-24T02:36:38.785Z,77.70
2024-04-24T02:37:39.483Z,75.73
2024-04-24T02:38:38.795Z,75.20
2024-04-24T02:39:38.754Z,77.50
2024-04-24T02:40:38.770Z,79.61
2024-04-24T02:41:38.783Z,78.54
2024-04-24T02:42:38.773Z,74.88
2024-04-24T02:43:38.780Z,75.78
2024-04-24T02:44:38.792Z,79.25
2024-04-24T02:45:38.804Z,78.82
2024-04-24T02:46:38.813Z,77.58
2024-04-24T02:47:38.890Z,77.20
2024-04-24T02:48:38.902Z,76.77
2024-04-24T02:49:38.844Z,75.38
2024-04-24T02:50:38.828Z,77.09
2024-04-24T02:51:38.847Z,77.70
2024-04-24T02:52:38.805Z,78.35
2024-04-24T02:53:38.787Z,76.17
2024-04-24T02:54:38.789Z,77.76
2024-04-24T02:55:38.838Z,76.66
2024-04-24T02:56:38.810Z,74.06
2024-04-24T02:57:38.828Z,76.79
2024-04-24T02:58:38.819Z,78.49
2024-04-24T02:59:38.828Z,78.00
2024-04-24T03:00:38.818Z,79.19
2024-04-24T03:01:38.844Z,76.02
2024-04-24T03:02:38.935Z,78.30
2024-04-24T03:03:38.892Z,79.01
2024-04-24T03:04:38.791Z,77.80
2024-04-24T03:05:38.824Z,77.54
2024-04-24T03:06:38.808Z,79.79
2024-04-24T03:07:38.820Z,76.27
2024-04-24T03:08:38.835Z,75.83
2024-04-24T03:09:49.928Z,75.77
2024-04-24T03:10:39.920Z,76.13
2024-04-24T03:11:40.965Z,77.42
2024-04-24T03:12:38.847Z,79.07
2024-04-24T03:13:38.848Z,80.29
2024-04-24T03:14:38.835Z,82.95
2024-04-24T03:15:38.842Z,84.22
2024-04-24T03:16:38.904Z,84.16
2024-04-24T03:17:38.919Z,82.71
2024-04-24T03:18:38.892Z,79.77
2024-04-24T03:19:38.855Z,81.37
2024-04-24T03:20:38.830Z,80.18
2024-04-24T03:21:38.844Z,81.14
2024-04-24T03:22:38.900Z,79.28
2024-04-24T03:23:38.843Z,80.72
2024-04-24T03:24:38.868Z,78.25
2024-04-24T03:25:38.868Z,80.30
2024-04-24T03:26:38.879Z,81.26
2024-04-24T03:27:38.911Z,82.00
2024-04-24T03:28:38.926Z,78.69
2024-04-24T03:29:38.950Z,78.60
2024-04-24T03:30:38.953Z,78.79
2024-04-24T03:31:38.989Z,79.11
2024-04-24T03:32:39.049Z,79.12
2024-04-24T03:33:39.058Z,78.46
2024-04-24T03:34:39.083Z,80.25
2024-04-24T03:35:39.168Z,78.16
2024-04-24T03:36:39.156Z,78.29
2024-04-24T03:37:39.181Z,79.95
2024-04-24T03:38:39.153Z,78.54
2024-04-24T03:39:39.196Z,79.37
2024-04-24T03:40:39.336Z,77.75
2024-04-24T03:41:39.191Z,76.43
2024-04-24T03:42:39.231Z,78.37
2024-04-24T03:43:39.227Z,80.23
2024-04-24T03:44:39.252Z,82.18
2024-04-24T03:45:39.284Z,80.33
2024-04-24T03:46:39.459Z,79.18
2024-04-24T03:47:39.639Z,78.50
2024-04-24T03:48:41.867Z,79.27
2024-04-24T03:49:39.453Z,76.83
2024-04-24T03:50:39.461Z,77.78
2024-04-24T03:51:39.325Z,80.90
2024-04-24T03:52:39.369Z,80.89
2024-04-24T03:53:39.335Z,78.98
2024-04-24T03:54:39.344Z,78.23
2024-04-24T03:55:39.340Z,80.88
2024-04-24T03:56:39.351Z,77.06
2024-04-24T03:57:39.361Z,78.02
2024-04-24T03:58:39.371Z,77.32
2024-04-24T03:59:39.440Z,78.73
2024-04-24T04:00:39.409Z,80.20
2024-04-24T04:01:39.364Z,81.60
2024-04-24T04:02:39.442Z,80.59
2024-04-24T04:03:39.505Z,77.32
2024-04-24T04:04:39.557Z,75.33
2024-04-24T04:05:39.593Z,74.25
2024-04-24T04:06:39.551Z,71.29
2024-04-24T04:07:39.628Z,69.32
2024-04-24T04:08:39.398Z,65.30
2024-04-24T04:09:39.426Z,61.98
2024-04-24T04:10:39.383Z,62.70
2024-04-24T04:11:39.531Z,55.62
2024-04-24T04:12:39.397Z,55.61
2024-04-24T04:13:39.398Z,51.73
2024-04-24T04:14:39.397Z,49.89
2024-04-24T04:15:39.602Z,50.00
2024-04-24T04:16:39.573Z,50.85
2024-04-24T04:17:39.585Z,50.49
2024-04-24T04:18:39.666Z,50.00
2024-04-24T04:19:39.515Z,49.93
2024-04-24T04:20:39.547Z,50.77
2024-04-24T04:21:39.382Z,49.71
2024-04-24T04:22:42.616Z,49.81
2024-04-24T04:23:39.652Z,49.83
2024-04-24T04:24:39.395Z,49.83
2024-04-24T04:25:39.405Z,47.85
2024-04-24T04:26:39.399Z,42.16
2024-04-24T04:27:39.400Z,41.92
2024-04-24T04:28:39.457Z,51.55
2024-04-24T04:29:39.446Z,50.30
2024-04-24T04:30:46.646Z,50.00
2024-04-24T04:31:53.983Z,50.00
2024-04-24T04:32:53.956Z,50.00
2024-04-24T04:33:53.983Z,50.00
2024-04-24T04:34:53.919Z,50.00
2024-04-24T04:35:53.904Z,50.00
2024-04-24T04:36:53.890Z,50.35
2024-04-24T04:37:53.919Z,50.63
2024-04-24T04:38:53.868Z,51.05
2024-04-24T04:39:53.912Z,51.11
2024-04-24T04:40:53.960Z,51.05
2024-04-24T04:41:53.911Z,53.21
2024-04-24T04:42:53.946Z,51.35
2024-04-24T04:43:53.949Z,51.91
2024-04-24T04:44:54.004Z,53.37
2024-04-24T04:45:53.932Z,54.27
2024-04-24T04:46:54.063Z,52.44
2024-04-24T04:47:54.081Z,53.95
2024-04-24T04:48:54.053Z,52.78
2024-04-24T04:49:53.995Z,53.95
2024-04-24T04:50:53.996Z,53.77
2024-04-24T04:51:53.970Z,52.67
2024-04-24T04:52:54.012Z,55.28
2024-04-24T04:53:53.971Z,53.63
2024-04-24T04:54:54.024Z,56.22
2024-04-24T04:55:54.049Z,52.24
2024-04-24T04:56:54.061Z,57.05
2024-04-24T04:57:54.009Z,56.77
2024-04-24T04:58:54.006Z,55.20
2024-04-24T04:59:53.891Z,56.85
2024-04-24T05:00:53.924Z,55.60
2024-04-24T05:01:55.822Z,56.78
2024-04-24T05:02:54.056Z,58.28
2024-04-24T05:03:54.013Z,56.72
2024-04-24T05:04:54.211Z,57.76
2024-04-24T05:05:54.107Z,59.96
2024-04-24T05:06:54.063Z,57.56
2024-04-24T05:07:54.128Z,59.42
2024-04-24T05:08:54.568Z,60.94
2024-04-24T05:09:54.185Z,61.63
2024-04-24T05:10:53.955Z,60.54
2024-04-24T05:11:53.980Z,61.44
2024-04-24T05:12:54.108Z,61.14
2024-04-24T05:13:53.955Z,63.27
2024-04-24T05:14:54.139Z,63.55
2024-04-24T05:15:53.903Z,61.18
2024-04-24T05:16:53.994Z,61.24
2024-04-24T05:17:54.026Z,59.69
2024-04-24T05:18:54.256Z,62.85
2024-04-24T05:19:53.957Z,61.23
2024-04-24T05:20:53.917Z,63.11
2024-04-24T05:21:53.901Z,62.05
2024-04-24T05:22:53.922Z,62.39
2024-04-24T05:23:53.904Z,62.79
2024-04-24T05:24:53.906Z,63.63
2024-04-24T05:25:53.947Z,62.90
2024-04-24T05:26:53.907Z,65.48
2024-04-24T05:27:53.920Z,61.14
2024-04-24T05:28:53.926Z,64.06
2024-04-24T05:29:53.938Z,60.74
2024-04-24T05:30:53.895Z,64.02
2024-04-24T05:31:53.936Z,64.29
2024-04-24T05:32:53.968Z,62.52
2024-04-24T05:33:54.673Z,63.76
2024-04-24T05:34:53.946Z,65.99
2024-04-24T05:35:53.920Z,62.10
2024-04-24T05:36:54.294Z,67.16
2024-04-24T05:37:53.984Z,72.38
2024-04-24T05:38:54.010Z,69.74
2024-04-24T05:39:53.944Z,73.84
2024-04-24T05:40:53.950Z,75.05
2024-04-24T05:41:53.910Z,77.90
2024-04-24T05:42:53.905Z,78.60
2024-04-24T05:43:53.984Z,75.23
2024-04-24T05:44:53.918Z,71.56
2024-04-24T05:45:55.172Z,74.32
2024-04-24T05:46:53.970Z,71.60
2024-04-24T05:47:53.977Z,67.42
2024-04-24T05:48:54.603Z,65.62
2024-04-24T05:49:53.970Z,63.14
2024-04-24T05:50:53.979Z,60.75
2024-04-24T05:51:53.952Z,61.12
2024-04-24T05:52:53.961Z,60.72
2024-04-24T05:53:53.951Z,59.45
2024-04-24T05:54:54.046Z,60.37
2024-04-24T05:55:53.960Z,57.62
2024-04-24T05:56:53.970Z,61.72
2024-04-24T05:57:54.030Z,61.96
2024-04-24T05:58:54.013Z,62.48
2024-04-24T05:59:53.953Z,65.21
2024-04-24T06:00:54.654Z,67.35
2024-04-24T06:01:53.989Z,71.78
2024-04-24T06:02:54.032Z,72.24
2024-04-24T06:03:54.041Z,72.91
2024-04-24T06:04:54.055Z,79.24
2024-04-24T06:05:53.981Z,79.40
2024-04-24T06:06:56.182Z,81.15
2024-04-24T06:07:54.148Z,84.57
2024-04-24T06:08:54.211Z,85.35
2024-04-24T06:09:54.266Z,89.27
2024-04-24T06:10:54.499Z,90.15
2024-04-24T06:11:54.711Z,91.14
2024-04-24T06:12:54.562Z,93.36
2024-04-24T06:13:54.683Z,96.23
2024-04-24T06:14:54.858Z,96.17
2024-04-24T06:15:54.601Z,98.62
2024-04-24T06:16:54.703Z,101.00
2024-04-24T06:17:57.834Z,103.25
2024-04-24T06:18:55.118Z,105.98
2024-04-24T06:19:54.920Z,105.18
2024-04-24T06:20:54.871Z,107.38
2024-04-24T06:21:54.732Z,108.58
2024-04-24T06:22:54.837Z,110.54
2024-04-24T06:23:54.988Z,111.87
2024-04-24T06:24:54.733Z,112.38
2024-04-24T06:25:54.774Z,115.49
2024-04-24T06:26:54.683Z,114.70
2024-04-24T06:27:54.693Z,113.71
2024-04-24T06:28:54.821Z,116.13
2024-04-24T06:29:54.698Z,118.71
2024-04-24T06:30:54.709Z,122.18
2024-04-24T06:31:54.780Z,123.35
2024-04-24T06:32:55.206Z,123.35
2024-04-24T06:33:54.757Z,121.89
2024-04-24T06:34:54.728Z,123.74
2024-04-24T06:35:54.722Z,123.06
2024-04-24T06:36:54.753Z,123.64
2024-04-24T06:37:55.000Z,122.26
2024-04-24T06:38:54.783Z,116.64
2024-04-24T06:39:54.725Z,119.71
2024-04-24T06:40:54.821Z,115.74
2024-04-24T06:41:54.730Z,115.40
2024-04-24T06:42:54.739Z,112.92
2024-04-24T06:43:54.768Z,113.66
2024-04-24T06:44:55.037Z,110.71
2024-04-24T06:45:54.715Z,112.89
2024-04-24T06:46:54.811Z,112.68
2024-04-24T06:47:55.791Z,110.44
2024-04-24T06:48:54.895Z,110.75
2024-04-24T06:49:54.772Z,110.33
2024-04-24T06:50:56.782Z,110.22
2024-04-24T06:51:57.765Z,107.38
2024-04-24T06:52:55.263Z,107.88
2024-04-24T06:53:55.003Z,106.62
2024-04-24T06:54:55.077Z,104.54
2024-04-24T06:55:55.139Z,104.92
2024-04-24T06:56:54.755Z,104.43
2024-04-24T06:57:56.283Z,106.15
2024-04-24T06:58:54.889Z,105.83
2024-04-24T06:59:54.749Z,106.43
2024-04-24T07:00:54.904Z,106.47
2024-04-24T07:01:54.840Z,107.51
2024-04-24T07:02:55.270Z,108.34
2024-04-24T07:03:56.220Z,110.16
2024-04-24T07:04:54.831Z,109.70
2024-04-24T07:05:55.082Z,108.99
2024-04-24T07:06:54.821Z,109.79
2024-04-24T07:07:54.856Z,109.72
2024-04-24T07:08:54.812Z,111.77
2024-04-24T07:09:55.846Z,111.55
2024-04-24T07:10:55.427Z,113.37
2024-04-24T07:11:55.174Z,109.24
2024-04-24T07:12:54.852Z,111.21
2024-04-24T07:13:54.843Z,110.42
2024-04-24T07:14:54.764Z,111.86
2024-04-24T07:15:54.771Z,109.62
2024-04-24T07:16:54.874Z,107.20
2024-04-24T07:17:55.054Z,102.97
2024-04-24T07:18:54.965Z,106.04
2024-04-24T07:19:54.861Z,109.20
2024-04-24T07:20:55.051Z,105.99
2024-04-24T07:21:54.807Z,103.61
2024-04-24T07:22:54.851Z,101.91
2024-04-24T07:23:54.829Z,98.62
2024-04-24T07:24:56.555Z,95.33
2024-04-24T07:25:54.944Z,92.96
2024-04-24T07:26:54.815Z,95.32
2024-04-24T07:28:28.454Z,90.33
2024-04-24T07:28:55.129Z,90.56
2024-04-24T07:29:54.958Z,91.98
2024-04-24T07:30:54.892Z,92.82
2024-04-24T07:31:54.907Z,92.43
2024-04-24T07:32:54.907Z,83.90
2024-04-24T07:33:54.862Z,75.14
2024-04-24T07:34:55.012Z,58.87
2024-04-24T07:35:54.862Z,50.35
2024-04-24T07:36:54.788Z,50.72
2024-04-24T07:37:54.988Z,51.76
2024-04-24T07:38:54.868Z,52.00
2024-04-24T07:39:54.866Z,50.00
2024-04-24T07:40:54.911Z,51.24
2024-04-24T07:41:54.917Z,52.24
2024-04-24T07:42:54.826Z,53.28
2024-04-24T07:43:55.074Z,56.22
2024-04-24T07:44:54.903Z,57.41
2024-04-24T07:45:55.221Z,57.53
2024-04-24T07:46:54.968Z,57.62
2024-04-24T07:47:55.036Z,59.55
2024-04-24T07:48:54.938Z,59.81
2024-04-24T07:49:55.035Z,62.51
2024-04-24T07:50:54.858Z,62.10
2024-04-24T07:51:56.032Z,61.83
2024-04-24T07:52:55.150Z,65.20
2024-04-24T07:53:54.858Z,63.82
2024-04-24T07:54:55.136Z,65.84
2024-04-24T07:55:55.137Z,69.27
2024-04-24T07:56:55.351Z,70.23
2024-04-24T07:57:54.836Z,71.00
2024-04-24T07:58:54.927Z,74.34
2024-04-24T07:59:54.867Z,73.07
2024-04-24T08:00:54.934Z,75.22
2024-04-24T08:01:55.127Z,75.63
2024-04-24T08:02:55.109Z,76.75
2024-04-24T08:03:54.934Z,78.24
2024-04-24T08:04:55.927Z,76.06
2024-04-24T08:05:55.206Z,81.70
2024-04-24T08:06:54.870Z,78.95
2024-04-24T08:07:55.503Z,79.12
2024-04-24T08:08:56.486Z,77.81
2024-04-24T08:09:55.098Z,78.52
2024-04-24T08:10:55.264Z,80.76
2024-04-24T08:11:55.315Z,89.81
2024-04-24T08:12:55.001Z,85.24
2024-04-24T08:13:55.164Z,86.58
2024-04-24T08:14:54.880Z,88.06
2024-04-24T08:15:55.005Z,88.82
2024-04-24T08:16:55.063Z,83.54
2024-04-24T08:17:55.214Z,88.92
2024-04-24T08:18:54.960Z,86.90
2024-04-24T08:19:55.192Z,86.32
2024-04-24T08:20:54.962Z,88.31
2024-04-24T08:21:54.946Z,88.31
2024-04-24T08:22:54.976Z,86.18
2024-04-24T08:23:55.654Z,86.58
2024-04-24T08:24:54.927Z,92.26
2024-04-24T08:26:10.622Z,90.98
2024-04-24T08:26:55.306Z,91.22
2024-04-24T08:27:56.049Z,92.08
2024-04-24T08:28:55.129Z,93.80
2024-04-24T08:29:55.158Z,97.31
2024-04-24T08:30:55.035Z,99.93
2024-04-24T08:31:55.012Z,94.60
2024-04-24T08:32:55.326Z,100.48
2024-04-24T08:33:55.065Z,93.08
2024-04-24T08:34:55.159Z,90.25
2024-04-24T08:35:54.912Z,89.59
2024-04-24T08:36:54.987Z,89.50
2024-04-24T08:37:55.021Z,84.27
2024-04-24T08:38:54.972Z,87.34
2024-04-24T08:39:54.969Z,84.57
2024-04-24T08:40:57.021Z,87.14
2024-04-24T08:41:57.840Z,78.81
2024-04-24T08:42:55.135Z,78.08
2024-04-24T08:43:55.086Z,70.24
2024-04-24T08:44:55.011Z,59.87
2024-04-24T08:45:55.007Z,55.13
2024-04-24T08:46:55.047Z,46.23
2024-04-24T08:47:55.227Z,48.41
2024-04-24T08:48:55.198Z,50.13
2024-04-24T08:49:56.455Z,52.90
2024-04-24T08:50:54.903Z,50.00
2024-04-24T08:51:57.490Z,51.13
2024-04-24T08:52:55.715Z,52.33
2024-04-24T08:53:55.151Z,52.62
2024-04-24T08:54:55.229Z,52.23
2024-04-24T08:55:55.282Z,55.20
2024-04-24T08:56:56.120Z,58.64
2024-04-24T08:57:55.399Z,59.65
2024-04-24T08:58:55.407Z,63.54
2024-04-24T08:59:56.081Z,59.65
2024-04-24T09:00:55.444Z,71.03
2024-04-24T09:01:56.186Z,70.09
2024-04-24T09:02:55.527Z,75.78
2024-04-24T09:03:55.604Z,74.10
2024-04-24T09:04:55.560Z,78.27
2024-04-24T09:05:58.564Z,84.14
2024-04-24T09:07:00.344Z,85.85
2024-04-24T09:07:55.642Z,86.15
2024-04-24T09:08:55.464Z,87.76
2024-04-24T09:09:55.654Z,91.33
2024-04-24T09:10:55.553Z,97.12
2024-04-24T09:11:55.547Z,108.97
2024-04-24T09:12:55.510Z,110.58
2024-04-24T09:13:56.085Z,117.00
2024-04-24T09:14:55.796Z,116.21
2024-04-24T09:16:01.513Z,122.81
2024-04-24T09:16:55.590Z,122.97
2024-04-24T09:17:55.771Z,123.73
2024-04-24T09:18:58.785Z,124.84
2024-04-24T09:19:55.530Z,123.16
2024-04-24T09:20:57.622Z,124.68
2024-04-24T09:21:55.614Z,123.44
2024-04-24T09:22:55.594Z,125.13
2024-04-24T09:23:57.587Z,129.32
2024-04-24T09:24:57.410Z,133.64
2024-04-24T09:25:55.794Z,140.98
2024-04-24T09:26:55.810Z,141.85
2024-04-24T09:27:56.385Z,136.95
2024-04-24T09:28:56.052Z,127.23
2024-04-24T09:29:56.208Z,124.78
2024-04-24T09:30:55.789Z,113.68
2024-04-24T09:31:55.918Z,108.85
2024-04-24T09:32:55.958Z,99.36
2024-04-24T09:33:55.951Z,87.92
2024-04-24T09:34:56.162Z,79.67
2024-04-24T09:35:56.140Z,75.28
2024-04-24T09:36:56.638Z,74.07
2024-04-24T09:37:56.652Z,73.92
2024-04-24T09:38:56.146Z,69.60
2024-04-24T09:39:56.652Z,70.80
2024-04-24T09:40:56.671Z,59.45
2024-04-24T09:41:56.597Z,61.31
2024-04-24T09:42:56.247Z,60.43
2024-04-24T09:43:56.295Z,51.53
2024-04-24T09:44:56.366Z,52.51
2024-04-24T09:45:56.316Z,52.81
2024-04-24T09:46:56.369Z,52.98
2024-04-24T09:47:56.555Z,50.00
2024-04-24T09:48:56.581Z,50.00
2024-04-24T09:49:56.603Z,51.20
2024-04-24T09:50:56.621Z,50.61
2024-04-24T09:51:56.536Z,50.00
2024-04-24T09:52:56.623Z,50.15
2024-04-24T09:53:56.594Z,50.00
2024-04-24T09:54:56.634Z,50.15
2024-04-24T09:55:58.293Z,50.00
2024-04-24T09:56:56.714Z,50.00
2024-04-24T09:57:56.754Z,51.39
2024-04-24T09:58:56.944Z,51.34
2024-04-24T09:59:56.888Z,49.02
2024-04-24T10:00:57.189Z,50.00
2024-04-24T10:01:58.117Z,49.42
2024-04-24T10:02:57.190Z,50.00
2024-04-24T10:03:58.130Z,51.12
2024-04-24T10:04:57.372Z,51.66
2024-04-24T10:05:57.889Z,50.00
2024-04-24T10:06:57.683Z,51.33
2024-04-24T10:07:57.418Z,50.62
2024-04-24T10:08:57.701Z,50.85
2024-04-24T10:09:57.386Z,50.00
2024-04-24T10:10:57.395Z,50.00
2024-04-24T10:11:57.621Z,54.22
2024-04-24T10:12:58.287Z,54.29
2024-04-24T10:13:57.672Z,57.64
2024-04-24T10:14:57.665Z,58.21
2024-04-24T10:15:57.663Z,58.97
2024-04-24T10:16:57.732Z,62.93
2024-04-24T10:17:57.769Z,64.14
2024-04-24T10:18:58.323Z,66.78
2024-04-24T10:20:02.782Z,67.77
2024-04-24T10:20:59.442Z,67.87
2024-04-24T10:21:57.735Z,68.46
2024-04-24T10:22:57.799Z,69.07
2024-04-24T10:23:58.193Z,73.54
2024-04-24T10:24:57.754Z,77.51
2024-04-24T10:25:57.824Z,80.83
2024-04-24T10:26:57.817Z,84.93
2024-04-24T10:27:57.850Z,89.01
2024-04-24T10:28:58.682Z,92.08
2024-04-24T10:29:57.821Z,97.62
2024-04-24T10:30:58.272Z,101.43
2024-04-24T10:31:58.221Z,107.75
2024-04-24T10:32:58.110Z,111.14
2024-04-24T10:33:58.037Z,114.34
2024-04-24T10:34:58.195Z,116.71
2024-04-24T10:35:58.067Z,118.39
2024-04-24T10:36:58.677Z,115.50
2024-04-24T10:37:58.223Z,118.03
2024-04-24T10:38:58.191Z,117.24
2024-04-24T10:39:58.361Z,117.35
2024-04-24T10:40:58.324Z,115.44
2024-04-24T10:41:58.641Z,115.54
2024-04-24T10:42:58.450Z,113.96
2024-04-24T10:43:58.475Z,106.73
2024-04-24T10:44:58.506Z,107.62
2024-04-24T10:45:58.615Z,104.83
2024-04-24T10:46:58.725Z,103.93
2024-04-24T10:47:59.087Z,104.85
2024-04-24T10:48:58.848Z,105.48
2024-04-24T10:49:59.988Z,104.74
2024-04-24T10:51:01.862Z,103.71
2024-04-24T10:51:59.257Z,103.86
2024-04-24T10:52:58.881Z,104.43
2024-04-24T10:53:59.037Z,105.05
2024-04-24T10:54:59.279Z,105.04
2024-04-24T10:55:58.875Z,102.68
2024-04-24T10:56:59.595Z,99.90
2024-04-24T10:57:58.851Z,92.24
2024-04-24T10:58:59.295Z,89.95
2024-04-24T10:59:58.863Z,87.59
2024-04-24T11:00:59.225Z,87.00
2024-04-24T11:01:58.989Z,82.22
2024-04-24T11:03:02.380Z,80.44
2024-04-24T11:03:59.208Z,80.48
2024-04-24T11:04:58.903Z,77.31
2024-04-24T11:05:58.897Z,75.24
2024-04-24T11:06:58.858Z,72.08
2024-04-24T11:07:59.310Z,71.84
2024-04-24T11:08:59.014Z,73.64
2024-04-24T11:09:59.160Z,70.01
2024-04-24T11:10:59.240Z,69.90
2024-04-24T11:11:59.061Z,67.99
2024-04-24T11:12:59.478Z,68.85
2024-04-24T11:13:59.280Z,71.40
2024-04-24T11:14:59.581Z,67.40
2024-04-24T11:16:05.853Z,67.68
2024-04-24T11:16:59.953Z,67.74
2024-04-24T11:17:58.986Z,67.98
2024-04-24T11:18:59.043Z,68.36
2024-04-24T11:19:59.220Z,65.30
2024-04-24T11:20:58.911Z,61.99
2024-04-24T11:21:58.879Z,60.04
2024-04-24T11:22:58.912Z,58.42
2024-04-24T11:23:58.957Z,57.06
2024-04-24T11:24:59.014Z,59.73
2024-04-24T11:26:00.303Z,59.75
2024-04-24T11:26:59.094Z,64.15
2024-04-24T11:27:59.157Z,66.84
2024-04-24T11:28:59.298Z,65.88
2024-04-24T11:29:59.362Z,62.97
2024-04-24T11:30:59.361Z,61.67
2024-04-24T11:32:00.452Z,55.01
2024-04-24T11:32:59.586Z,51.04
2024-04-24T11:33:59.585Z,50.00
2024-04-24T11:34:59.443Z,50.06
2024-04-24T11:35:59.491Z,51.77
2024-04-24T11:36:59.428Z,50.17
2024-04-24T11:37:59.457Z,52.27
2024-04-24T11:38:59.462Z,50.00
2024-04-24T11:39:59.553Z,52.28
2024-04-24T11:40:59.547Z,50.59
2024-04-24T11:41:59.525Z,50.00
2024-04-24T11:42:59.556Z,52.20
2024-04-24T11:43:59.555Z,50.71
2024-04-24T11:44:59.464Z,50.94
2024-04-24T11:45:59.468Z,51.77
2024-04-24T11:46:59.523Z,50.00
2024-04-24T11:47:59.519Z,50.42
2024-04-24T11:48:59.493Z,50.00
2024-04-24T11:49:59.769Z,50.00
2024-04-24T11:50:59.491Z,51.56
2024-04-24T11:51:59.624Z,50.81
2024-04-24T11:52:59.584Z,51.58
2024-04-24T11:53:59.484Z,53.19
2024-04-24T11:54:59.537Z,52.07
2024-04-24T11:55:59.557Z,51.75
2024-04-24T11:56:59.544Z,50.00
2024-04-24T11:57:59.502Z,55.78
2024-04-24T11:58:59.512Z,53.23
2024-04-24T11:59:59.480Z,56.56
2024-04-24T12:00:59.527Z,55.27
2024-04-24T12:01:59.553Z,55.29
2024-04-24T12:02:59.592Z,62.12
2024-04-24T12:03:59.451Z,66.10
2024-04-24T12:04:59.535Z,72.14
2024-04-24T12:05:59.492Z,74.42
2024-04-24T12:06:59.503Z,81.87
2024-04-24T12:07:59.452Z,87.94
2024-04-24T12:08:59.460Z,92.67
2024-04-24T12:09:59.489Z,102.27
2024-04-24T12:10:59.581Z,109.95
2024-04-24T12:11:59.584Z,111.92
2024-04-24T12:12:59.465Z,111.46
2024-04-24T12:13:59.518Z,114.47
2024-04-24T12:14:59.470Z,115.96
2024-04-24T12:15:59.512Z,119.60
2024-04-24T12:16:59.499Z,117.10
2024-04-24T12:17:59.556Z,117.08
2024-04-24T12:18:59.477Z,116.98
2024-04-24T12:19:59.563Z,118.24
2024-04-24T12:21:02.316Z,116.76
2024-04-24T12:21:59.503Z,118.53
2024-04-24T12:22:59.539Z,119.26
2024-04-24T12:23:59.556Z,117.63
2024-04-24T12:24:59.514Z,117.33
2024-04-24T12:25:59.572Z,117.39
2024-04-24T12:26:59.461Z,118.78
2024-04-24T12:27:59.504Z,117.89
2024-04-24T12:28:59.497Z,117.55
2024-04-24T12:29:59.532Z,116.86
2024-04-24T12:31:00.574Z,116.03
2024-04-24T12:31:59.518Z,115.34
2024-04-24T12:32:59.585Z,114.71
2024-04-24T12:33:59.707Z,115.23
2024-04-24T12:34:59.580Z,113.29
2024-04-24T12:35:59.502Z,114.90
2024-04-24T12:36:59.530Z,113.05
2024-04-24T12:37:59.559Z,112.16
2024-04-24T12:38:59.557Z,111.51
2024-04-24T12:39:59.528Z,111.93
2024-04-24T12:40:59.558Z,108.22
2024-04-24T12:41:59.557Z,109.75
2024-04-24T12:42:59.537Z,110.17
2024-04-24T12:43:59.592Z,108.64
2024-04-24T12:44:59.616Z,109.08
2024-04-24T12:45:59.559Z,109.82
2024-04-24T12:46:59.596Z,107.50
2024-04-24T12:47:59.545Z,110.17